sensor_id;sensor_type;location;lat;lon;timestamp;P1;durP1;ratioP1;P2;durP2;ratioP2
51298;SDS011;37382;45.192;9.790;2023-07-20T04:04:47;16.42;;;8.57;;
51298;SDS011;37382;45.192;9.790;2023-07-20T04:07:15;14.55;;;8.80;;
51298;SDS011;37382;45.192;9.790;2023-07-20T04:09:43;13.18;;;8.88;;
51298;SDS011;37382;45.192;9.790;2023-07-20T04:12:11;19.05;;;9.05;;
51298;SDS011;37382;45.192;9.790;2023-07-20T04:14:38;18.33;;;8.90;;
51298;SDS011;37382;45.192;9.790;2023-07-20T04:17:06;15.02;;;8.80;;
51298;SDS011;37382;45.192;9.790;2023-07-20T04:19:34;16.23;;;8.82;;
51298;SDS011;37382;45.192;9.790;2023-07-20T04:22:01;18.98;;;9.35;;
51298;SDS011;37382;45.192;9.790;2023-07-20T04:24:30;15.68;;;8.50;;
51298;SDS011;37382;45.192;9.790;2023-07-20T04:26:57;20.98;;;8.48;;
51298;SDS011;37382;45.192;9.790;2023-07-20T04:29:25;30.00;;;8.65;;
51298;SDS011;37382;45.192;9.790;2023-07-20T04:31:52;15.20;;;8.88;;
51298;SDS011;37382;45.192;9.790;2023-07-20T04:34:21;15.00;;;8.52;;
51298;SDS011;37382;45.192;9.790;2023-07-20T04:36:48;17.65;;;8.85;;
51298;SDS011;37382;45.192;9.790;2023-07-20T04:39:17;16.05;;;8.75;;
51298;SDS011;37382;45.192;9.790;2023-07-20T04:42:00;14.02;;;8.10;;
51298;SDS011;37382;45.192;9.790;2023-07-20T04:44:27;14.18;;;8.55;;
51298;SDS011;37382;45.192;9.790;2023-07-20T04:46:55;17.30;;;8.82;;
51298;SDS011;37382;45.192;9.790;2023-07-20T04:49:23;15.52;;;8.40;;
51298;SDS011;37382;45.192;9.790;2023-07-20T04:51:51;17.45;;;8.05;;
51298;SDS011;37382;45.192;9.790;2023-07-20T04:54:19;25.08;;;10.07;;
51298;SDS011;37382;45.192;9.790;2023-07-20T04:56:48;26.40;;;8.93;;
51298;SDS011;37382;45.192;9.790;2023-07-20T04:59:19;18.92;;;9.60;;
51298;SDS011;37382;45.192;9.790;2023-07-20T05:01:47;14.77;;;8.77;;
51298;SDS011;37382;45.192;9.790;2023-07-20T05:04:16;63.13;;;13.40;;
51298;SDS011;37382;45.192;9.790;2023-07-20T05:06:46;27.00;;;9.70;;
51298;SDS011;37382;45.192;9.790;2023-07-20T05:09:14;18.48;;;9.38;;
51298;SDS011;37382;45.192;9.790;2023-07-20T05:11:42;17.75;;;9.18;;
51298;SDS011;37382;45.192;9.790;2023-07-20T05:14:09;18.88;;;8.85;;
51298;SDS011;37382;45.192;9.790;2023-07-20T05:16:37;15.57;;;9.05;;
51298;SDS011;37382;45.192;9.790;2023-07-20T05:19:06;18.30;;;8.70;;
51298;SDS011;37382;45.192;9.790;2023-07-20T05:21:34;10.73;;;8.10;;
51298;SDS011;37382;45.192;9.790;2023-07-20T05:24:02;12.27;;;6.82;;
51298;SDS011;37382;45.192;9.790;2023-07-20T05:26:30;18.23;;;7.78;;
51298;SDS011;37382;45.192;9.790;2023-07-20T05:28:58;14.63;;;7.88;;
51298;SDS011;37382;45.192;9.790;2023-07-20T05:31:26;19.73;;;7.53;;
51298;SDS011;37382;45.192;9.790;2023-07-20T05:33:53;16.27;;;8.02;;
51298;SDS011;37382;45.192;9.790;2023-07-20T05:36:21;15.43;;;7.70;;
51298;SDS011;37382;45.192;9.790;2023-07-20T05:38:49;16.02;;;8.75;;
51298;SDS011;37382;45.192;9.790;2023-07-20T05:41:17;15.68;;;8.15;;
51298;SDS011;37382;45.192;9.790;2023-07-20T05:43:44;13.77;;;7.25;;
51298;SDS011;37382;45.192;9.790;2023-07-20T05:46:12;16.10;;;8.10;;
51298;SDS011;37382;45.192;9.790;2023-07-20T05:48:40;21.48;;;8.40;;
51298;SDS011;37382;45.192;9.790;2023-07-20T05:51:07;15.30;;;8.00;;
51298;SDS011;37382;45.192;9.790;2023-07-20T05:53:35;16.15;;;7.50;;
51298;SDS011;37382;45.192;9.790;2023-07-20T05:56:02;16.25;;;7.50;;
51298;SDS011;37382;45.192;9.790;2023-07-20T05:58:30;18.80;;;8.18;;
51298;SDS011;37382;45.192;9.790;2023-07-20T06:00:58;13.63;;;7.80;;
51298;SDS011;37382;45.192;9.790;2023-07-20T06:03:26;21.23;;;8.40;;
51298;SDS011;37382;45.192;9.790;2023-07-20T06:05:57;27.60;;;8.48;;
51298;SDS011;37382;45.192;9.790;2023-07-20T06:08:26;44.50;;;8.88;;
51298;SDS011;37382;45.192;9.790;2023-07-20T06:10:57;17.35;;;8.45;;
51298;SDS011;37382;45.192;9.790;2023-07-20T06:13:24;18.08;;;7.80;;
51298;SDS011;37382;45.192;9.790;2023-07-20T06:15:52;18.85;;;7.90;;
51298;SDS011;37382;45.192;9.790;2023-07-20T06:18:22;17.38;;;7.32;;
51298;SDS011;37382;45.192;9.790;2023-07-20T06:20:50;19.05;;;7.88;;
51298;SDS011;37382;45.192;9.790;2023-07-20T06:23:18;15.30;;;7.50;;
51298;SDS011;37382;45.192;9.790;2023-07-20T06:25:46;14.85;;;7.63;;
51298;SDS011;37382;45.192;9.790;2023-07-20T06:28:15;11.90;;;7.18;;
51298;SDS011;37382;45.192;9.790;2023-07-20T06:30:43;13.65;;;7.13;;
51298;SDS011;37382;45.192;9.790;2023-07-20T06:33:11;15.95;;;7.35;;
51298;SDS011;37382;45.192;9.790;2023-07-20T06:35:41;13.07;;;7.80;;
51298;SDS011;37382;45.192;9.790;2023-07-20T06:38:12;20.30;;;8.00;;
51298;SDS011;37382;45.192;9.790;2023-07-20T06:40:43;21.33;;;9.25;;
51298;SDS011;37382;45.192;9.790;2023-07-20T06:43:11;16.30;;;7.68;;
51298;SDS011;37382;45.192;9.790;2023-07-20T06:45:41;16.23;;;8.17;;
51298;SDS011;37382;45.192;9.790;2023-07-20T06:48:09;9.32;;;6.25;;
51298;SDS011;37382;45.192;9.790;2023-07-20T06:50:37;21.63;;;7.38;;
51298;SDS011;37382;45.192;9.790;2023-07-20T06:53:05;18.67;;;7.13;;
51298;SDS011;37382;45.192;9.790;2023-07-20T06:55:32;28.67;;;8.20;;
51298;SDS011;37382;45.192;9.790;2023-07-20T06:58:08;18.92;;;7.30;;
51298;SDS011;37382;45.192;9.790;2023-07-20T07:00:36;60.60;;;11.02;;
51298;SDS011;37382;45.192;9.790;2023-07-20T07:03:03;21.88;;;8.15;;
51298;SDS011;37382;45.192;9.790;2023-07-20T07:05:31;26.73;;;8.20;;
51298;SDS011;37382;45.192;9.790;2023-07-20T07:08:06;12.00;;;7.10;;
51298;SDS011;37382;45.192;9.790;2023-07-20T07:10:35;24.30;;;7.95;;
51298;SDS011;37382;45.192;9.790;2023-07-20T07:13:03;27.20;;;8.50;;
51298;SDS011;37382;45.192;9.790;2023-07-20T07:15:32;11.45;;;7.90;;
51298;SDS011;37382;45.192;9.790;2023-07-20T07:18:00;31.48;;;8.43;;
51298;SDS011;37382;45.192;9.790;2023-07-20T07:20:29;15.82;;;6.80;;
51298;SDS011;37382;45.192;9.790;2023-07-20T07:22:57;16.20;;;7.35;;
51298;SDS011;37382;45.192;9.790;2023-07-20T07:25:24;14.18;;;6.88;;
51298;SDS011;37382;45.192;9.790;2023-07-20T07:27:53;12.73;;;8.05;;
51298;SDS011;37382;45.192;9.790;2023-07-20T07:30:23;16.30;;;7.50;;
51298;SDS011;37382;45.192;9.790;2023-07-20T07:32:51;21.05;;;8.02;;
51298;SDS011;37382;45.192;9.790;2023-07-20T07:35:19;68.00;;;9.55;;
51298;SDS011;37382;45.192;9.790;2023-07-20T07:37:49;22.58;;;8.07;;
51298;SDS011;37382;45.192;9.790;2023-07-20T07:40:37;24.40;;;7.07;;
51298;SDS011;37382;45.192;9.790;2023-07-20T07:43:05;18.55;;;7.57;;
51298;SDS011;37382;45.192;9.790;2023-07-20T07:45:34;11.82;;;6.93;;
51298;SDS011;37382;45.192;9.790;2023-07-20T07:48:06;17.27;;;7.22;;
51298;SDS011;37382;45.192;9.790;2023-07-20T07:50:34;18.90;;;6.53;;
51298;SDS011;37382;45.192;9.790;2023-07-20T07:53:02;20.50;;;6.90;;
51298;SDS011;37382;45.192;9.790;2023-07-20T07:55:30;12.07;;;5.85;;
51298;SDS011;37382;45.192;9.790;2023-07-20T07:57:58;12.02;;;6.20;;
51298;SDS011;37382;45.192;9.790;2023-07-20T08:00:26;8.20;;;5.88;;
51298;SDS011;37382;45.192;9.790;2023-07-20T08:02:53;13.63;;;5.85;;
51298;SDS011;37382;45.192;9.790;2023-07-20T08:05:21;9.77;;;5.70;;
51298;SDS011;37382;45.192;9.790;2023-07-20T08:07:48;12.65;;;6.05;;
51298;SDS011;37382;45.192;9.790;2023-07-20T08:10:16;11.10;;;6.38;;
51298;SDS011;37382;45.192;9.790;2023-07-20T08:12:43;21.00;;;6.85;;
51298;SDS011;37382;45.192;9.790;2023-07-20T08:15:11;23.27;;;7.60;;
51298;SDS011;37382;45.192;9.790;2023-07-20T08:17:41;20.10;;;7.35;;
51298;SDS011;37382;45.192;9.790;2023-07-20T08:20:15;16.58;;;7.43;;
51298;SDS011;37382;45.192;9.790;2023-07-20T08:22:45;15.00;;;6.93;;
51298;SDS011;37382;45.192;9.790;2023-07-20T08:25:14;19.90;;;7.38;;
51298;SDS011;37382;45.192;9.790;2023-07-20T08:27:42;23.65;;;7.15;;
51298;SDS011;37382;45.192;9.790;2023-07-20T08:30:11;14.75;;;6.63;;
51298;SDS011;37382;45.192;9.790;2023-07-20T08:32:38;28.65;;;8.23;;
51298;SDS011;37382;45.192;9.790;2023-07-20T08:35:06;15.27;;;7.57;;
51298;SDS011;37382;45.192;9.790;2023-07-20T08:37:34;15.38;;;6.38;;
51298;SDS011;37382;45.192;9.790;2023-07-20T08:40:02;13.95;;;7.03;;
51298;SDS011;37382;45.192;9.790;2023-07-20T08:42:31;14.80;;;7.40;;
51298;SDS011;37382;45.192;9.790;2023-07-20T08:44:58;29.92;;;8.23;;
51298;SDS011;37382;45.192;9.790;2023-07-20T08:47:28;31.00;;;8.57;;
51298;SDS011;37382;45.192;9.790;2023-07-20T08:49:56;13.27;;;5.82;;
51298;SDS011;37382;45.192;9.790;2023-07-20T08:52:23;21.33;;;6.57;;
51298;SDS011;37382;45.192;9.790;2023-07-20T08:54:51;15.05;;;7.07;;
51298;SDS011;37382;45.192;9.790;2023-07-20T08:57:20;23.67;;;7.15;;
51298;SDS011;37382;45.192;9.790;2023-07-20T08:59:48;19.52;;;7.05;;
51298;SDS011;37382;45.192;9.790;2023-07-20T09:02:19;20.08;;;7.03;;
51298;SDS011;37382;45.192;9.790;2023-07-20T09:04:52;18.13;;;7.63;;
51298;SDS011;37382;45.192;9.790;2023-07-20T09:07:20;16.95;;;7.25;;
51298;SDS011;37382;45.192;9.790;2023-07-20T09:09:48;15.95;;;6.47;;
51298;SDS011;37382;45.192;9.790;2023-07-20T09:12:16;18.15;;;6.57;;
51298;SDS011;37382;45.192;9.790;2023-07-20T09:14:44;22.95;;;6.45;;
51298;SDS011;37382;45.192;9.790;2023-07-20T09:17:12;23.63;;;6.82;;
51298;SDS011;37382;45.192;9.790;2023-07-20T09:19:47;34.25;;;8.30;;
51298;SDS011;37382;45.192;9.790;2023-07-20T09:22:15;20.23;;;7.38;;
51298;SDS011;37382;45.192;9.790;2023-07-20T09:24:44;16.35;;;6.32;;
51298;SDS011;37382;45.192;9.790;2023-07-20T09:27:12;11.70;;;5.85;;
51298;SDS011;37382;45.192;9.790;2023-07-20T09:29:52;14.23;;;5.75;;
51298;SDS011;37382;45.192;9.790;2023-07-20T09:32:20;14.65;;;5.72;;
51298;SDS011;37382;45.192;9.790;2023-07-20T09:34:52;17.70;;;6.10;;
51298;SDS011;37382;45.192;9.790;2023-07-20T09:37:20;15.27;;;6.80;;
51298;SDS011;37382;45.192;9.790;2023-07-20T09:39:52;18.73;;;6.40;;
51298;SDS011;37382;45.192;9.790;2023-07-20T09:42:23;21.00;;;5.63;;
51298;SDS011;37382;45.192;9.790;2023-07-20T09:44:55;12.70;;;5.75;;
51298;SDS011;37382;45.192;9.790;2023-07-20T09:47:24;17.08;;;6.32;;
51298;SDS011;37382;45.192;9.790;2023-07-20T09:49:57;24.23;;;7.13;;
51298;SDS011;37382;45.192;9.790;2023-07-20T09:52:33;22.75;;;7.15;;
51298;SDS011;37382;45.192;9.790;2023-07-20T09:57:32;13.95;;;6.75;;
51298;SDS011;37382;45.192;9.790;2023-07-20T10:00:03;21.27;;;7.43;;
51298;SDS011;37382;45.192;9.790;2023-07-20T10:02:43;18.65;;;8.05;;
51298;SDS011;37382;45.192;9.790;2023-07-20T10:05:13;22.33;;;8.32;;
51298;SDS011;37382;45.192;9.790;2023-07-20T10:07:46;23.00;;;8.65;;
51298;SDS011;37382;45.192;9.790;2023-07-20T10:10:15;17.23;;;8.57;;
51298;SDS011;37382;45.192;9.790;2023-07-20T10:12:47;21.88;;;7.72;;
51298;SDS011;37382;45.192;9.790;2023-07-20T10:18:41;13.88;;;6.00;;
51298;SDS011;37382;45.192;9.790;2023-07-20T10:21:45;14.40;;;5.82;;
51298;SDS011;37382;45.192;9.790;2023-07-20T10:24:25;21.02;;;6.03;;
51298;SDS011;37382;45.192;9.790;2023-07-20T10:26:55;12.82;;;6.07;;
51298;SDS011;37382;45.192;9.790;2023-07-20T10:29:23;11.57;;;6.00;;
51298;SDS011;37382;45.192;9.790;2023-07-20T10:31:57;18.88;;;7.97;;
51298;SDS011;37382;45.192;9.790;2023-07-20T10:34:24;13.88;;;6.65;;
51298;SDS011;37382;45.192;9.790;2023-07-20T10:36:52;18.15;;;6.07;;
51298;SDS011;37382;45.192;9.790;2023-07-20T10:39:22;13.13;;;6.85;;
51298;SDS011;37382;45.192;9.790;2023-07-20T10:41:59;21.88;;;6.80;;
51298;SDS011;37382;45.192;9.790;2023-07-20T10:44:47;23.27;;;6.32;;
51298;SDS011;37382;45.192;9.790;2023-07-20T10:47:15;15.88;;;5.50;;
51298;SDS011;37382;45.192;9.790;2023-07-20T10:49:58;15.77;;;6.13;;
51298;SDS011;37382;45.192;9.790;2023-07-20T10:52:40;17.30;;;6.35;;
51298;SDS011;37382;45.192;9.790;2023-07-20T10:55:13;16.02;;;5.45;;
51298;SDS011;37382;45.192;9.790;2023-07-20T10:57:42;11.48;;;5.95;;
51298;SDS011;37382;45.192;9.790;2023-07-20T11:00:10;26.05;;;7.97;;
51298;SDS011;37382;45.192;9.790;2023-07-20T11:02:43;23.88;;;7.03;;
51298;SDS011;37382;45.192;9.790;2023-07-20T11:08:37;20.33;;;6.65;;
51298;SDS011;37382;45.192;9.790;2023-07-20T11:13:58;14.68;;;5.50;;
51298;SDS011;37382;45.192;9.790;2023-07-20T11:16:34;18.63;;;5.80;;
51298;SDS011;37382;45.192;9.790;2023-07-20T11:19:14;14.48;;;5.38;;
51298;SDS011;37382;45.192;9.790;2023-07-20T11:21:58;11.15;;;5.35;;
51298;SDS011;37382;45.192;9.790;2023-07-20T11:24:30;15.77;;;6.22;;
51298;SDS011;37382;45.192;9.790;2023-07-20T11:26:59;14.65;;;5.43;;
51298;SDS011;37382;45.192;9.790;2023-07-20T11:29:28;14.27;;;5.65;;
51298;SDS011;37382;45.192;9.790;2023-07-20T11:32:00;11.82;;;5.05;;
51298;SDS011;37382;45.192;9.790;2023-07-20T11:34:32;28.70;;;6.07;;
51298;SDS011;37382;45.192;9.790;2023-07-20T11:37:01;11.45;;;4.80;;
51298;SDS011;37382;45.192;9.790;2023-07-20T11:39:32;11.73;;;5.50;;
51298;SDS011;37382;45.192;9.790;2023-07-20T11:41:59;17.58;;;4.78;;
51298;SDS011;37382;45.192;9.790;2023-07-20T11:44:27;12.02;;;4.68;;
51298;SDS011;37382;45.192;9.790;2023-07-20T11:47:09;12.48;;;5.03;;
51298;SDS011;37382;45.192;9.790;2023-07-20T11:49:42;12.10;;;4.88;;
51298;SDS011;37382;45.192;9.790;2023-07-20T11:52:15;14.52;;;4.88;;
51298;SDS011;37382;45.192;9.790;2023-07-20T11:54:43;12.95;;;4.93;;
51298;SDS011;37382;45.192;9.790;2023-07-20T11:57:16;14.95;;;5.65;;
51298;SDS011;37382;45.192;9.790;2023-07-20T11:59:53;13.35;;;4.90;;
51298;SDS011;37382;45.192;9.790;2023-07-20T12:02:26;10.32;;;4.32;;
51298;SDS011;37382;45.192;9.790;2023-07-20T12:04:54;11.70;;;4.85;;
51298;SDS011;37382;45.192;9.790;2023-07-20T12:07:22;12.90;;;4.90;;
51298;SDS011;37382;45.192;9.790;2023-07-20T12:10:09;12.20;;;4.55;;
51298;SDS011;37382;45.192;9.790;2023-07-20T12:12:39;11.75;;;4.78;;
51298;SDS011;37382;45.192;9.790;2023-07-20T12:15:13;11.57;;;4.63;;
51298;SDS011;37382;45.192;9.790;2023-07-20T12:17:44;14.25;;;4.80;;
51298;SDS011;37382;45.192;9.790;2023-07-20T12:20:13;14.98;;;4.90;;
51298;SDS011;37382;45.192;9.790;2023-07-20T12:22:51;12.65;;;5.07;;
51298;SDS011;37382;45.192;9.790;2023-07-20T12:25:19;12.55;;;4.97;;
51298;SDS011;37382;45.192;9.790;2023-07-20T12:27:47;12.45;;;5.03;;
51298;SDS011;37382;45.192;9.790;2023-07-20T12:30:16;11.05;;;4.60;;
51298;SDS011;37382;45.192;9.790;2023-07-20T12:32:44;13.20;;;4.85;;
51298;SDS011;37382;45.192;9.790;2023-07-20T12:35:11;8.00;;;4.57;;
51298;SDS011;37382;45.192;9.790;2023-07-20T12:37:41;15.32;;;4.78;;
51298;SDS011;37382;45.192;9.790;2023-07-20T12:40:09;14.10;;;5.03;;
51298;SDS011;37382;45.192;9.790;2023-07-20T12:42:37;13.50;;;4.75;;
51298;SDS011;37382;45.192;9.790;2023-07-20T12:45:06;12.13;;;4.95;;
51298;SDS011;37382;45.192;9.790;2023-07-20T12:47:33;21.10;;;5.40;;
51298;SDS011;37382;45.192;9.790;2023-07-20T12:50:01;18.15;;;5.32;;
51298;SDS011;37382;45.192;9.790;2023-07-20T12:52:31;11.53;;;5.23;;
51298;SDS011;37382;45.192;9.790;2023-07-20T12:54:58;11.70;;;4.97;;
51298;SDS011;37382;45.192;9.790;2023-07-20T12:57:28;19.67;;;5.18;;
51298;SDS011;37382;45.192;9.790;2023-07-20T12:59:57;18.35;;;5.25;;
51298;SDS011;37382;45.192;9.790;2023-07-20T13:02:24;12.00;;;5.22;;
51298;SDS011;37382;45.192;9.790;2023-07-20T13:04:52;14.82;;;4.82;;
51298;SDS011;37382;45.192;9.790;2023-07-20T13:07:29;14.27;;;5.25;;
51298;SDS011;37382;45.192;9.790;2023-07-20T13:10:03;14.75;;;5.00;;
51298;SDS011;37382;45.192;9.790;2023-07-20T13:12:32;16.42;;;5.18;;
51298;SDS011;37382;45.192;9.790;2023-07-20T13:15:03;13.82;;;5.30;;
51298;SDS011;37382;45.192;9.790;2023-07-20T13:17:35;11.77;;;5.03;;
51298;SDS011;37382;45.192;9.790;2023-07-20T13:20:08;16.98;;;5.65;;
51298;SDS011;37382;45.192;9.790;2023-07-20T13:22:38;13.30;;;4.95;;
51298;SDS011;37382;45.192;9.790;2023-07-20T13:25:07;10.15;;;4.80;;
51298;SDS011;37382;45.192;9.790;2023-07-20T13:27:35;20.17;;;4.90;;
51298;SDS011;37382;45.192;9.790;2023-07-20T13:30:05;15.45;;;5.13;;
51298;SDS011;37382;45.192;9.790;2023-07-20T13:32:36;12.43;;;5.15;;
51298;SDS011;37382;45.192;9.790;2023-07-20T13:35:08;19.75;;;5.07;;
51298;SDS011;37382;45.192;9.790;2023-07-20T13:37:36;9.50;;;4.88;;
51298;SDS011;37382;45.192;9.790;2023-07-20T13:40:04;13.80;;;4.93;;
51298;SDS011;37382;45.192;9.790;2023-07-20T13:42:33;17.73;;;5.07;;
51298;SDS011;37382;45.192;9.790;2023-07-20T13:45:01;11.52;;;5.07;;
51298;SDS011;37382;45.192;9.790;2023-07-20T13:47:33;14.52;;;5.05;;
51298;SDS011;37382;45.192;9.790;2023-07-20T13:50:04;14.43;;;4.65;;
51298;SDS011;37382;45.192;9.790;2023-07-20T13:52:32;15.20;;;4.80;;
51298;SDS011;37382;45.192;9.790;2023-07-20T13:55:03;11.48;;;4.82;;
51298;SDS011;37382;45.192;9.790;2023-07-20T13:57:32;16.03;;;5.30;;
51298;SDS011;37382;45.192;9.790;2023-07-20T14:00:05;13.13;;;5.13;;
51298;SDS011;37382;45.192;9.790;2023-07-20T14:02:40;18.38;;;5.10;;
51298;SDS011;37382;45.192;9.790;2023-07-20T14:05:10;17.45;;;5.28;;
51298;SDS011;37382;45.192;9.790;2023-07-20T14:07:41;10.93;;;5.50;;
51298;SDS011;37382;45.192;9.790;2023-07-20T14:10:10;14.65;;;4.68;;
51298;SDS011;37382;45.192;9.790;2023-07-20T14:12:41;13.13;;;5.05;;
51298;SDS011;37382;45.192;9.790;2023-07-20T14:15:09;23.98;;;5.28;;
51298;SDS011;37382;45.192;9.790;2023-07-20T14:17:38;12.30;;;4.78;;
51298;SDS011;37382;45.192;9.790;2023-07-20T14:20:05;18.88;;;5.70;;
51298;SDS011;37382;45.192;9.790;2023-07-20T14:22:48;17.23;;;5.70;;
51298;SDS011;37382;45.192;9.790;2023-07-20T14:25:18;17.77;;;6.00;;
51298;SDS011;37382;45.192;9.790;2023-07-20T14:27:46;16.63;;;5.80;;
51298;SDS011;37382;45.192;9.790;2023-07-20T14:30:13;16.20;;;5.50;;
51298;SDS011;37382;45.192;9.790;2023-07-20T14:32:41;12.75;;;4.88;;
51298;SDS011;37382;45.192;9.790;2023-07-20T14:35:08;13.10;;;5.40;;
51298;SDS011;37382;45.192;9.790;2023-07-20T14:37:37;13.07;;;5.45;;
51298;SDS011;37382;45.192;9.790;2023-07-20T14:40:05;13.27;;;5.57;;
51298;SDS011;37382;45.192;9.790;2023-07-20T14:45:03;20.75;;;5.10;;
51298;SDS011;37382;45.192;9.790;2023-07-20T14:47:32;19.42;;;5.57;;
51298;SDS011;37382;45.192;9.790;2023-07-20T14:50:03;14.05;;;5.10;;
51298;SDS011;37382;45.192;9.790;2023-07-20T14:52:31;19.38;;;5.03;;
51298;SDS011;37382;45.192;9.790;2023-07-20T14:54:59;20.52;;;5.53;;
51298;SDS011;37382;45.192;9.790;2023-07-20T14:57:26;18.05;;;4.95;;
51298;SDS011;37382;45.192;9.790;2023-07-20T14:59:54;15.38;;;6.00;;
51298;SDS011;37382;45.192;9.790;2023-07-20T15:02:21;11.73;;;5.65;;
51298;SDS011;37382;45.192;9.790;2023-07-20T15:04:50;17.05;;;5.10;;
51298;SDS011;37382;45.192;9.790;2023-07-20T15:07:20;19.73;;;5.13;;
51298;SDS011;37382;45.192;9.790;2023-07-20T15:09:51;9.93;;;4.95;;
51298;SDS011;37382;45.192;9.790;2023-07-20T15:12:18;16.73;;;4.72;;
51298;SDS011;37382;45.192;9.790;2023-07-20T15:14:49;11.27;;;4.65;;
51298;SDS011;37382;45.192;9.790;2023-07-20T15:17:34;9.55;;;4.18;;
51298;SDS011;37382;45.192;9.790;2023-07-20T15:20:03;14.23;;;4.65;;
51298;SDS011;37382;45.192;9.790;2023-07-20T15:22:32;19.00;;;4.80;;
51298;SDS011;37382;45.192;9.790;2023-07-20T15:25:02;28.27;;;4.88;;
51298;SDS011;37382;45.192;9.790;2023-07-20T15:27:31;13.50;;;4.63;;
51298;SDS011;37382;45.192;9.790;2023-07-20T15:29:59;16.27;;;4.40;;
51298;SDS011;37382;45.192;9.790;2023-07-20T15:35:16;13.35;;;3.75;;
51298;SDS011;37382;45.192;9.790;2023-07-20T15:37:45;10.07;;;3.33;;
51298;SDS011;37382;45.192;9.790;2023-07-20T15:40:13;9.18;;;3.78;;
51298;SDS011;37382;45.192;9.790;2023-07-20T15:42:41;9.80;;;3.47;;
51298;SDS011;37382;45.192;9.790;2023-07-20T15:45:19;6.93;;;3.05;;
51298;SDS011;37382;45.192;9.790;2023-07-20T15:47:48;11.35;;;3.60;;
51298;SDS011;37382;45.192;9.790;2023-07-20T15:50:15;16.38;;;4.03;;
51298;SDS011;37382;45.192;9.790;2023-07-20T15:52:43;7.00;;;3.42;;
51298;SDS011;37382;45.192;9.790;2023-07-20T15:55:10;6.68;;;3.17;;
51298;SDS011;37382;45.192;9.790;2023-07-20T15:57:38;9.35;;;4.53;;
51298;SDS011;37382;45.192;9.790;2023-07-20T16:00:05;10.68;;;3.45;;
51298;SDS011;37382;45.192;9.790;2023-07-20T16:02:39;9.90;;;3.50;;
51298;SDS011;37382;45.192;9.790;2023-07-20T16:05:08;8.30;;;3.72;;
51298;SDS011;37382;45.192;9.790;2023-07-20T16:07:38;8.07;;;3.50;;
51298;SDS011;37382;45.192;9.790;2023-07-20T16:10:06;8.85;;;3.55;;
51298;SDS011;37382;45.192;9.790;2023-07-20T16:12:36;12.65;;;3.80;;
51298;SDS011;37382;45.192;9.790;2023-07-20T16:15:04;10.98;;;4.72;;
51298;SDS011;37382;45.192;9.790;2023-07-20T16:17:33;16.33;;;3.88;;
51298;SDS011;37382;45.192;9.790;2023-07-20T16:20:01;6.63;;;3.75;;
51298;SDS011;37382;45.192;9.790;2023-07-20T16:22:31;5.65;;;2.97;;
51298;SDS011;37382;45.192;9.790;2023-07-20T16:24:59;11.15;;;4.32;;
51298;SDS011;37382;45.192;9.790;2023-07-20T16:27:27;14.30;;;4.07;;
51298;SDS011;37382;45.192;9.790;2023-07-20T16:29:54;10.75;;;3.58;;
51298;SDS011;37382;45.192;9.790;2023-07-20T16:32:22;12.40;;;4.18;;
51298;SDS011;37382;45.192;9.790;2023-07-20T16:34:50;11.95;;;3.80;;
51298;SDS011;37382;45.192;9.790;2023-07-20T16:37:18;12.93;;;3.53;;
51298;SDS011;37382;45.192;9.790;2023-07-20T16:39:52;7.93;;;3.75;;
51298;SDS011;37382;45.192;9.790;2023-07-20T16:42:19;10.18;;;3.85;;
51298;SDS011;37382;45.192;9.790;2023-07-20T16:45:07;10.60;;;3.83;;
51298;SDS011;37382;45.192;9.790;2023-07-20T16:47:37;9.23;;;3.90;;
51298;SDS011;37382;45.192;9.790;2023-07-20T16:50:05;9.38;;;3.92;;
51298;SDS011;37382;45.192;9.790;2023-07-20T16:52:32;11.15;;;4.10;;
51298;SDS011;37382;45.192;9.790;2023-07-20T16:55:00;13.57;;;4.22;;
51298;SDS011;37382;45.192;9.790;2023-07-20T16:57:27;17.17;;;3.95;;
51298;SDS011;37382;45.192;9.790;2023-07-20T16:59:56;14.97;;;3.40;;
51298;SDS011;37382;45.192;9.790;2023-07-20T17:02:24;11.73;;;4.20;;
51298;SDS011;37382;45.192;9.790;2023-07-20T17:04:51;11.60;;;4.90;;
51298;SDS011;37382;45.192;9.790;2023-07-20T17:07:19;10.68;;;5.20;;
51298;SDS011;37382;45.192;9.790;2023-07-20T17:09:47;18.00;;;5.43;;
51298;SDS011;37382;45.192;9.790;2023-07-20T17:12:16;16.13;;;5.13;;
51298;SDS011;37382;45.192;9.790;2023-07-20T17:14:44;14.23;;;4.40;;
51298;SDS011;37382;45.192;9.790;2023-07-20T17:17:12;13.65;;;4.20;;
51298;SDS011;37382;45.192;9.790;2023-07-20T17:19:40;11.50;;;5.10;;
51298;SDS011;37382;45.192;9.790;2023-07-20T17:22:07;8.02;;;4.25;;
51298;SDS011;37382;45.192;9.790;2023-07-20T17:24:35;9.63;;;4.05;;
51298;SDS011;37382;45.192;9.790;2023-07-20T17:27:05;19.67;;;3.58;;
51298;SDS011;37382;45.192;9.790;2023-07-20T17:29:36;9.43;;;3.45;;
51298;SDS011;37382;45.192;9.790;2023-07-20T17:32:04;7.00;;;3.53;;
51298;SDS011;37382;45.192;9.790;2023-07-20T17:34:32;14.52;;;3.75;;
51298;SDS011;37382;45.192;9.790;2023-07-20T17:37:00;13.95;;;3.47;;
51298;SDS011;37382;45.192;9.790;2023-07-20T17:39:32;8.30;;;3.65;;
51298;SDS011;37382;45.192;9.790;2023-07-20T17:42:03;12.32;;;4.50;;
51298;SDS011;37382;45.192;9.790;2023-07-20T17:44:51;20.73;;;4.93;;
51298;SDS011;37382;45.192;9.790;2023-07-20T17:47:19;18.45;;;4.68;;
51298;SDS011;37382;45.192;9.790;2023-07-20T17:49:47;15.73;;;4.95;;
51298;SDS011;37382;45.192;9.790;2023-07-20T17:52:15;14.55;;;5.10;;
51298;SDS011;37382;45.192;9.790;2023-07-20T17:54:43;11.52;;;5.47;;
51298;SDS011;37382;45.192;9.790;2023-07-20T17:57:10;13.48;;;5.40;;
51298;SDS011;37382;45.192;9.790;2023-07-20T17:59:38;16.00;;;5.70;;
51298;SDS011;37382;45.192;9.790;2023-07-20T18:02:25;20.15;;;6.50;;
51298;SDS011;37382;45.192;9.790;2023-07-20T18:04:54;16.48;;;5.90;;
51298;SDS011;37382;45.192;9.790;2023-07-20T18:07:22;16.33;;;5.00;;
51298;SDS011;37382;45.192;9.790;2023-07-20T18:09:49;19.02;;;4.78;;
51298;SDS011;37382;45.192;9.790;2023-07-20T18:12:17;21.23;;;5.50;;
51298;SDS011;37382;45.192;9.790;2023-07-20T18:14:45;16.52;;;4.20;;
51298;SDS011;37382;45.192;9.790;2023-07-20T18:17:13;15.43;;;4.60;;
51298;SDS011;37382;45.192;9.790;2023-07-20T18:19:41;12.43;;;4.32;;
51298;SDS011;37382;45.192;9.790;2023-07-20T18:22:10;17.63;;;5.03;;
51298;SDS011;37382;45.192;9.790;2023-07-20T18:24:39;17.80;;;4.70;;
51298;SDS011;37382;45.192;9.790;2023-07-20T18:27:06;18.58;;;5.07;;
51298;SDS011;37382;45.192;9.790;2023-07-20T18:29:34;20.63;;;5.65;;
51298;SDS011;37382;45.192;9.790;2023-07-20T18:32:02;12.65;;;5.40;;
51298;SDS011;37382;45.192;9.790;2023-07-20T18:34:31;17.50;;;4.93;;
51298;SDS011;37382;45.192;9.790;2023-07-20T18:36:58;14.05;;;5.00;;
51298;SDS011;37382;45.192;9.790;2023-07-20T18:39:26;18.15;;;5.05;;
51298;SDS011;37382;45.192;9.790;2023-07-20T18:41:53;14.25;;;4.97;;
51298;SDS011;37382;45.192;9.790;2023-07-20T18:44:21;21.10;;;5.30;;
51298;SDS011;37382;45.192;9.790;2023-07-20T18:46:49;19.42;;;5.38;;
51298;SDS011;37382;45.192;9.790;2023-07-20T18:49:17;12.13;;;5.13;;
51298;SDS011;37382;45.192;9.790;2023-07-20T18:51:44;10.48;;;5.30;;
51298;SDS011;37382;45.192;9.790;2023-07-20T18:54:11;14.18;;;5.43;;
51298;SDS011;37382;45.192;9.790;2023-07-20T18:56:39;13.10;;;6.03;;
51298;SDS011;37382;45.192;9.790;2023-07-20T18:59:07;14.63;;;6.10;;
51298;SDS011;37382;45.192;9.790;2023-07-20T19:01:35;15.00;;;5.72;;
51298;SDS011;37382;45.192;9.790;2023-07-20T19:04:03;23.10;;;5.88;;
51298;SDS011;37382;45.192;9.790;2023-07-20T19:06:30;17.50;;;5.93;;
51298;SDS011;37382;45.192;9.790;2023-07-20T19:08:58;14.23;;;7.22;;
51298;SDS011;37382;45.192;9.790;2023-07-20T19:11:25;21.13;;;7.25;;